sensor_id;sensor_type;location;lat;lon;timestamp;pressure;altitude;pressure_sealevel;temperature;humidity
69173;BME280;56280;49.662;8.408;2022-08-21T00:01:26;100763.34;;;17.88;59.00
69173;BME280;56280;49.662;8.408;2022-08-21T00:03:53;100763.00;;;17.91;58.12
69173;BME280;56280;49.662;8.408;2022-08-21T00:06:19;100767.88;;;17.95;57.25
69173;BME280;56280;49.662;8.408;2022-08-21T00:08:45;100769.22;;;17.91;57.39
69173;BME280;56280;49.662;8.408;2022-08-21T00:11:11;100750.50;;;17.73;57.66
69173;BME280;56280;49.662;8.408;2022-08-21T00:13:36;100737.03;;;17.57;57.65
69173;BME280;56280;49.662;8.408;2022-08-21T00:16:02;100757.19;;;17.69;57.97
69173;BME280;56280;49.662;8.408;2022-08-21T00:18:28;100736.00;;;17.49;58.05
69173;BME280;56280;49.662;8.408;2022-08-21T00:20:54;100765.25;;;17.61;58.38
69173;BME280;56280;49.662;8.408;2022-08-21T00:23:19;100774.50;;;17.58;58.43
69173;BME280;56280;49.662;8.408;2022-08-21T00:25:45;100769.72;;;17.36;59.71
69173;BME280;56280;49.662;8.408;2022-08-21T00:28:11;100752.94;;;16.99;59.99
69173;BME280;56280;49.662;8.408;2022-08-21T00:30:37;100765.09;;;17.11;59.98
69173;BME280;56280;49.662;8.408;2022-08-21T00:33:03;100750.44;;;17.06;59.96
69173;BME280;56280;49.662;8.408;2022-08-21T00:35:38;100755.34;;;17.10;59.49
69173;BME280;56280;49.662;8.408;2022-08-21T00:38:05;100750.28;;;17.07;60.00
69173;BME280;56280;49.662;8.408;2022-08-21T00:40:49;100770.81;;;17.17;59.59
69173;BME280;56280;49.662;8.408;2022-08-21T00:43:19;100769.94;;;17.16;59.81
69173;BME280;56280;49.662;8.408;2022-08-21T00:45:46;100776.00;;;17.18;60.25
69173;BME280;56280;49.662;8.408;2022-08-21T00:48:19;100756.63;;;17.06;60.24
69173;BME280;56280;49.662;8.408;2022-08-21T00:50:50;100763.69;;;17.07;60.26
69173;BME280;56280;49.662;8.408;2022-08-21T00:53:17;100768.94;;;17.17;60.10
69173;BME280;56280;49.662;8.408;2022-08-21T00:55:44;100754.47;;;17.02;59.89
69173;BME280;56280;49.662;8.408;2022-08-21T00:58:11;100762.41;;;17.11;60.06
69173;BME280;56280;49.662;8.408;2022-08-21T01:00:41;100770.28;;;17.13;59.86
69173;BME280;56280;49.662;8.408;2022-08-21T01:03:10;100750.25;;;16.99;59.41
69173;BME280;56280;49.662;8.408;2022-08-21T01:05:36;100767.06;;;17.09;59.83
69173;BME280;56280;49.662;8.408;2022-08-21T01:08:06;100761.81;;;17.00;59.82
69173;BME280;56280;49.662;8.408;2022-08-21T01:10:34;100770.56;;;17.02;59.77
69173;BME280;56280;49.662;8.408;2022-08-21T01:13:01;100761.03;;;17.07;59.54
69173;BME280;56280;49.662;8.408;2022-08-21T01:15:30;100759.28;;;16.98;59.40
69173;BME280;56280;49.662;8.408;2022-08-21T01:17:57;100752.25;;;16.97;59.45
69173;BME280;56280;49.662;8.408;2022-08-21T01:20:23;100756.75;;;16.97;59.86
69173;BME280;56280;49.662;8.408;2022-08-21T01:22:49;100751.50;;;16.87;60.00
69173;BME280;56280;49.662;8.408;2022-08-21T01:25:15;100752.03;;;16.90;60.20
69173;BME280;56280;49.662;8.408;2022-08-21T01:27:42;100769.34;;;16.96;59.71
69173;BME280;56280;49.662;8.408;2022-08-21T01:30:18;100774.72;;;16.96;60.39
69173;BME280;56280;49.662;8.408;2022-08-21T01:32:47;100764.09;;;16.86;60.11
69173;BME280;56280;49.662;8.408;2022-08-21T01:35:14;100773.50;;;16.90;61.12
69173;BME280;56280;49.662;8.408;2022-08-21T01:37:41;100767.63;;;16.69;60.86
69173;BME280;56280;49.662;8.408;2022-08-21T01:40:07;100769.13;;;16.45;64.00
69173;BME280;56280;49.662;8.408;2022-08-21T01:42:33;100744.00;;;16.20;62.27
69173;BME280;56280;49.662;8.408;2022-08-21T01:44:59;100763.41;;;16.40;62.60
69173;BME280;56280;49.662;8.408;2022-08-21T01:47:24;100759.38;;;16.36;63.01
69173;BME280;56280;49.662;8.408;2022-08-21T01:49:50;100748.66;;;16.36;63.42
69173;BME280;56280;49.662;8.408;2022-08-21T01:52:16;100748.09;;;16.32;63.25
69173;BME280;56280;49.662;8.408;2022-08-21T01:54:42;100765.56;;;16.36;63.88
69173;BME280;56280;49.662;8.408;2022-08-21T01:57:08;100752.09;;;16.28;63.37
69173;BME280;56280;49.662;8.408;2022-08-21T01:59:34;100758.59;;;16.26;63.17
69173;BME280;56280;49.662;8.408;2022-08-21T02:01:59;100757.03;;;16.15;63.92
69173;BME280;56280;49.662;8.408;2022-08-21T02:04:25;100749.91;;;15.88;65.04
69173;BME280;56280;49.662;8.408;2022-08-21T02:06:51;100745.50;;;15.68;65.06
69173;BME280;56280;49.662;8.408;2022-08-21T02:09:17;100752.66;;;15.68;64.83
69173;BME280;56280;49.662;8.408;2022-08-21T02:11:42;100747.84;;;15.54;65.50
69173;BME280;56280;49.662;8.408;2022-08-21T02:14:09;100751.59;;;15.61;65.85
69173;BME280;56280;49.662;8.408;2022-08-21T02:16:53;100741.34;;;15.74;64.60
69173;BME280;56280;49.662;8.408;2022-08-21T02:19:18;100717.09;;;15.76;64.19
69173;BME280;56280;49.662;8.408;2022-08-21T02:21:43;100750.19;;;16.02;63.91
69173;BME280;56280;49.662;8.408;2022-08-21T02:24:10;100740.47;;;16.01;63.97
69173;BME280;56280;49.662;8.408;2022-08-21T02:26:35;100751.50;;;15.98;64.97
69173;BME280;56280;49.662;8.408;2022-08-21T02:29:01;100720.03;;;15.82;64.53
69173;BME280;56280;49.662;8.408;2022-08-21T02:31:26;100733.97;;;15.86;64.54
69173;BME280;56280;49.662;8.408;2022-08-21T02:33:52;100677.81;;;15.30;65.53
69173;BME280;56280;49.662;8.408;2022-08-21T02:36:17;100658.34;;;15.10;65.77
69173;BME280;56280;49.662;8.408;2022-08-21T02:38:43;100733.22;;;15.48;66.20
69173;BME280;56280;49.662;8.408;2022-08-21T02:41:12;100741.72;;;15.61;65.68
69173;BME280;56280;49.662;8.408;2022-08-21T02:43:38;100732.91;;;15.51;66.07
69173;BME280;56280;49.662;8.408;2022-08-21T02:46:05;100741.63;;;15.53;66.75
69173;BME280;56280;49.662;8.408;2022-08-21T02:48:32;100743.44;;;15.35;66.86
69173;BME280;56280;49.662;8.408;2022-08-21T02:51:07;100744.97;;;15.09;68.25
69173;BME280;56280;49.662;8.408;2022-08-21T02:53:33;100735.84;;;15.02;68.99
69173;BME280;56280;49.662;8.408;2022-08-21T02:56:00;100754.88;;;14.99;69.68
69173;BME280;56280;49.662;8.408;2022-08-21T02:58:29;100756.44;;;14.92;69.71
69173;BME280;56280;49.662;8.408;2022-08-21T03:00:56;100724.53;;;14.71;69.79
69173;BME280;56280;49.662;8.408;2022-08-21T03:03:22;100743.06;;;14.92;70.25
69173;BME280;56280;49.662;8.408;2022-08-21T03:05:48;100733.91;;;14.94;70.04
69173;BME280;56280;49.662;8.408;2022-08-21T03:08:14;100743.41;;;15.07;69.46
69173;BME280;56280;49.662;8.408;2022-08-21T03:10:43;100749.88;;;15.14;69.01
69173;BME280;56280;49.662;8.408;2022-08-21T03:13:09;100728.31;;;15.16;68.68
69173;BME280;56280;49.662;8.408;2022-08-21T03:15:35;100700.78;;;14.95;69.23
69173;BME280;56280;49.662;8.408;2022-08-21T03:18:01;100729.59;;;15.11;69.03
69173;BME280;56280;49.662;8.408;2022-08-21T03:20:28;100738.63;;;15.10;69.53
69173;BME280;56280;49.662;8.408;2022-08-21T03:22:54;100708.13;;;14.93;69.18
69173;BME280;56280;49.662;8.408;2022-08-21T03:25:22;100745.50;;;15.13;69.38
69173;BME280;56280;49.662;8.408;2022-08-21T03:27:48;100734.56;;;15.06;69.21
69173;BME280;56280;49.662;8.408;2022-08-21T03:30:18;100750.03;;;15.12;69.05
69173;BME280;56280;49.662;8.408;2022-08-21T03:32:45;100676.84;;;14.56;69.26
69173;BME280;56280;49.662;8.408;2022-08-21T03:35:11;100743.34;;;14.89;69.21
69173;BME280;56280;49.662;8.408;2022-08-21T03:37:36;100738.31;;;14.76;69.50
69173;BME280;56280;49.662;8.408;2022-08-21T03:40:07;100729.59;;;14.74;69.19
69173;BME280;56280;49.662;8.408;2022-08-21T03:42:33;100758.44;;;14.80;69.09
69173;BME280;56280;49.662;8.408;2022-08-21T03:44:58;100738.47;;;14.55;69.78
69173;BME280;56280;49.662;8.408;2022-08-21T03:47:24;100737.25;;;14.49;71.03
69173;BME280;56280;49.662;8.408;2022-08-21T03:49:50;100711.94;;;14.34;71.47
69173;BME280;56280;49.662;8.408;2022-08-21T03:52:15;100715.59;;;14.33;72.17
69173;BME280;56280;49.662;8.408;2022-08-21T03:54:42;100751.59;;;14.48;72.18
69173;BME280;56280;49.662;8.408;2022-08-21T03:57:08;100754.97;;;14.40;72.72
69173;BME280;56280;49.662;8.408;2022-08-21T03:59:34;100756.13;;;14.38;72.79
69173;BME280;56280;49.662;8.408;2022-08-21T04:02:01;100758.75;;;14.57;71.05
69173;BME280;56280;49.662;8.408;2022-08-21T04:04:28;100712.19;;;14.40;71.03
69173;BME280;56280;49.662;8.408;2022-08-21T04:06:55;100761.56;;;14.66;71.11
69173;BME280;56280;49.662;8.408;2022-08-21T04:09:21;100692.28;;;14.15;71.41
69173;BME280;56280;49.662;8.408;2022-08-21T04:11:46;100762.28;;;14.38;72.40
69173;BME280;56280;49.662;8.408;2022-08-21T04:14:12;100735.88;;;14.06;72.80
69173;BME280;56280;49.662;8.408;2022-08-21T04:16:39;100758.94;;;14.07;73.71
69173;BME280;56280;49.662;8.408;2022-08-21T04:19:04;100747.69;;;13.94;74.17
69173;BME280;56280;49.662;8.408;2022-08-21T04:21:30;100768.22;;;14.03;74.30
69173;BME280;56280;49.662;8.408;2022-08-21T04:23:56;100778.06;;;14.12;73.79
69173;BME280;56280;49.662;8.408;2022-08-21T04:26:22;100774.38;;;14.13;73.32
69173;BME280;56280;49.662;8.408;2022-08-21T04:28:47;100767.25;;;14.04;73.30
69173;BME280;56280;49.662;8.408;2022-08-21T04:31:12;100776.91;;;14.05;73.52
69173;BME280;56280;49.662;8.408;2022-08-21T04:33:38;100757.25;;;13.86;74.46
69173;BME280;56280;49.662;8.408;2022-08-21T04:36:04;100783.25;;;13.94;73.97
69173;BME280;56280;49.662;8.408;2022-08-21T04:38:29;100796.03;;;13.91;74.64
69173;BME280;56280;49.662;8.408;2022-08-21T04:40:56;100740.88;;;13.60;75.54
69173;BME280;56280;49.662;8.408;2022-08-21T04:43:22;100771.41;;;13.77;75.79
69173;BME280;56280;49.662;8.408;2022-08-21T04:45:49;100780.56;;;13.84;76.33
69173;BME280;56280;49.662;8.408;2022-08-21T04:48:17;100787.06;;;14.01;76.02
69173;BME280;56280;49.662;8.408;2022-08-21T04:51:03;100793.81;;;14.15;75.73
69173;BME280;56280;49.662;8.408;2022-08-21T04:53:34;100795.34;;;14.28;74.63
69173;BME280;56280;49.662;8.408;2022-08-21T04:56:10;100791.84;;;14.27;74.76
69173;BME280;56280;49.662;8.408;2022-08-21T04:58:37;100802.09;;;14.32;75.20
69173;BME280;56280;49.662;8.408;2022-08-21T05:01:04;100798.72;;;14.49;74.68
69173;BME280;56280;49.662;8.408;2022-08-21T05:03:33;100802.66;;;14.74;74.67
69173;BME280;56280;49.662;8.408;2022-08-21T05:06:00;100798.09;;;14.94;74.03
69173;BME280;56280;49.662;8.408;2022-08-21T05:08:26;100801.06;;;14.91;73.93
69173;BME280;56280;49.662;8.408;2022-08-21T05:10:53;100801.13;;;15.47;73.52
69173;BME280;56280;49.662;8.408;2022-08-21T05:13:19;100779.28;;;15.69;71.96
69173;BME280;56280;49.662;8.408;2022-08-21T05:15:45;100807.97;;;16.05;70.26
69173;BME280;56280;49.662;8.408;2022-08-21T05:18:10;100794.13;;;16.10;69.73
69173;BME280;56280;49.662;8.408;2022-08-21T05:20:36;100805.09;;;16.34;68.56
69173;BME280;56280;49.662;8.408;2022-08-21T05:23:06;100816.13;;;16.49;67.80
69173;BME280;56280;49.662;8.408;2022-08-21T05:25:33;100777.25;;;16.53;67.13
69173;BME280;56280;49.662;8.408;2022-08-21T05:27:58;100808.22;;;16.92;67.18
69173;BME280;56280;49.662;8.408;2022-08-21T05:30:23;100804.94;;;17.06;66.78
69173;BME280;56280;49.662;8.408;2022-08-21T05:32:48;100797.38;;;17.28;66.09
69173;BME280;56280;49.662;8.408;2022-08-21T05:35:14;100791.44;;;17.59;64.68
69173;BME280;56280;49.662;8.408;2022-08-21T05:37:39;100811.50;;;17.81;64.13
69173;BME280;56280;49.662;8.408;2022-08-21T05:40:05;100801.63;;;17.90;63.43
69173;BME280;56280;49.662;8.408;2022-08-21T05:42:32;100797.81;;;18.17;62.72
69173;BME280;56280;49.662;8.408;2022-08-21T05:44:57;100801.03;;;18.53;62.24
69173;BME280;56280;49.662;8.408;2022-08-21T05:47:22;100739.31;;;18.60;61.32
69173;BME280;56280;49.662;8.408;2022-08-21T05:49:48;100804.38;;;19.44;60.35
69173;BME280;56280;49.662;8.408;2022-08-21T05:52:18;100799.69;;;19.78;58.72
69173;BME280;56280;49.662;8.408;2022-08-21T05:54:44;100765.59;;;19.85;58.18
69173;BME280;56280;49.662;8.408;2022-08-21T05:57:09;100771.31;;;20.13;57.89
69173;BME280;56280;49.662;8.408;2022-08-21T05:59:34;100796.34;;;20.68;55.62
69173;BME280;56280;49.662;8.408;2022-08-21T06:02:01;100800.38;;;21.02;54.04
69173;BME280;56280;49.662;8.408;2022-08-21T06:04:26;100779.16;;;21.14;52.87
69173;BME280;56280;49.662;8.408;2022-08-21T06:06:52;100797.66;;;21.62;52.20
69173;BME280;56280;49.662;8.408;2022-08-21T06:09:17;100801.00;;;22.00;51.90
69173;BME280;56280;49.662;8.408;2022-08-21T06:11:42;100807.03;;;22.17;51.18
69173;BME280;56280;49.662;8.408;2022-08-21T06:14:08;100759.69;;;22.28;50.41
69173;BME280;56280;49.662;8.408;2022-08-21T06:16:33;100800.38;;;22.91;50.20
69173;BME280;56280;49.662;8.408;2022-08-21T06:18:58;100808.53;;;23.26;48.97
69173;BME280;56280;49.662;8.408;2022-08-21T06:21:24;100773.03;;;23.15;48.04
69173;BME280;56280;49.662;8.408;2022-08-21T06:23:49;100801.28;;;23.34;47.71
69173;BME280;56280;49.662;8.408;2022-08-21T06:26:14;100809.63;;;23.87;46.69
69173;BME280;56280;49.662;8.408;2022-08-21T06:28:40;100778.34;;;23.84;46.01
69173;BME280;56280;49.662;8.408;2022-08-21T06:31:33;100802.22;;;24.36;45.48
69173;BME280;56280;49.662;8.408;2022-08-21T06:33:58;100793.88;;;24.51;44.91
69173;BME280;56280;49.662;8.408;2022-08-21T06:36:23;100807.47;;;24.91;44.24
69173;BME280;56280;49.662;8.408;2022-08-21T06:38:49;100817.69;;;25.02;43.64
69173;BME280;56280;49.662;8.408;2022-08-21T06:41:14;100797.16;;;25.20;43.81
69173;BME280;56280;49.662;8.408;2022-08-21T06:43:40;100814.28;;;25.34;42.06
69173;BME280;56280;49.662;8.408;2022-08-21T06:46:06;100796.38;;;24.99;42.56
69173;BME280;56280;49.662;8.408;2022-08-21T06:48:32;100799.66;;;25.21;42.51
69173;BME280;56280;49.662;8.408;2022-08-21T06:51:00;100806.94;;;25.41;41.67
69173;BME280;56280;49.662;8.408;2022-08-21T06:53:25;100810.25;;;25.50;41.94
69173;BME280;56280;49.662;8.408;2022-08-21T06:55:51;100791.81;;;25.52;41.82
69173;BME280;56280;49.662;8.408;2022-08-21T06:58:16;100799.78;;;25.92;40.57
69173;BME280;56280;49.662;8.408;2022-08-21T07:00:44;100789.38;;;26.20;39.42
69173;BME280;56280;49.662;8.408;2022-08-21T07:03:21;100807.31;;;25.96;40.29
69173;BME280;56280;49.662;8.408;2022-08-21T07:05:46;100756.88;;;25.94;40.39
69173;BME280;56280;49.662;8.408;2022-08-21T07:08:12;100788.22;;;26.60;38.77
69173;BME280;56280;49.662;8.408;2022-08-21T07:10:37;100785.94;;;26.57;37.14
69173;BME280;56280;49.662;8.408;2022-08-21T07:13:02;100803.47;;;25.65;39.44
69173;BME280;56280;49.662;8.408;2022-08-21T07:15:29;100808.28;;;25.70;39.64
69173;BME280;56280;49.662;8.408;2022-08-21T07:17:54;100738.56;;;25.30;39.44
69173;BME280;56280;49.662;8.408;2022-08-21T07:20:20;100795.84;;;25.88;39.44
69173;BME280;56280;49.662;8.408;2022-08-21T07:22:45;100793.00;;;25.10;40.13
69173;BME280;56280;49.662;8.408;2022-08-21T07:25:10;100803.41;;;25.20;40.75
69173;BME280;56280;49.662;8.408;2022-08-21T07:27:36;100804.94;;;25.61;40.54
69173;BME280;56280;49.662;8.408;2022-08-21T07:30:01;100791.47;;;25.35;40.01
69173;BME280;56280;49.662;8.408;2022-08-21T07:32:26;100784.34;;;26.17;40.56
69173;BME280;56280;49.662;8.408;2022-08-21T07:34:53;100789.31;;;25.95;39.03
69173;BME280;56280;49.662;8.408;2022-08-21T07:37:18;100792.00;;;26.02;39.98
69173;BME280;56280;49.662;8.408;2022-08-21T07:39:43;100789.59;;;26.69;37.87
69173;BME280;56280;49.662;8.408;2022-08-21T07:42:09;100792.88;;;26.28;37.64
69173;BME280;56280;49.662;8.408;2022-08-21T07:44:35;100799.44;;;25.36;39.65
69173;BME280;56280;49.662;8.408;2022-08-21T07:47:01;100744.72;;;25.58;39.87
69173;BME280;56280;49.662;8.408;2022-08-21T07:49:27;100786.88;;;25.80;39.44
69173;BME280;56280;49.662;8.408;2022-08-21T07:51:52;100782.00;;;26.28;39.45
69173;BME280;56280;49.662;8.408;2022-08-21T07:54:17;100789.25;;;26.59;39.45
69173;BME280;56280;49.662;8.408;2022-08-21T07:56:42;100761.66;;;26.99;37.55
69173;BME280;56280;49.662;8.408;2022-08-21T07:59:08;100793.22;;;27.07;38.55
69173;BME280;56280;49.662;8.408;2022-08-21T08:01:33;100788.22;;;27.04;39.34
69173;BME280;56280;49.662;8.408;2022-08-21T08:03:58;100782.75;;;27.22;37.81
69173;BME280;56280;49.662;8.408;2022-08-21T08:06:24;100772.94;;;27.21;37.07
69173;BME280;56280;49.662;8.408;2022-08-21T08:08:51;100784.22;;;27.25;37.96
69173;BME280;56280;49.662;8.408;2022-08-21T08:11:17;100773.88;;;27.64;36.44
69173;BME280;56280;49.662;8.408;2022-08-21T08:13:45;100774.47;;;26.48;38.02
69173;BME280;56280;49.662;8.408;2022-08-21T08:16:11;100775.91;;;25.94;39.86
69173;BME280;56280;49.662;8.408;2022-08-21T08:18:36;100774.25;;;25.93;39.91
69173;BME280;56280;49.662;8.408;2022-08-21T08:21:02;100791.72;;;26.92;39.60
69173;BME280;56280;49.662;8.408;2022-08-21T08:23:28;100788.22;;;27.04;38.58
69173;BME280;56280;49.662;8.408;2022-08-21T08:25:55;100756.88;;;27.32;39.13
69173;BME280;56280;49.662;8.408;2022-08-21T08:28:20;100777.50;;;27.76;38.00
69173;BME280;56280;49.662;8.408;2022-08-21T08:30:47;100769.03;;;28.38;37.98
69173;BME280;56280;49.662;8.408;2022-08-21T08:33:13;100762.84;;;28.79;36.05
69173;BME280;56280;49.662;8.408;2022-08-21T08:35:45;100731.59;;;28.51;37.38
69173;BME280;56280;49.662;8.408;2022-08-21T08:38:10;100719.38;;;28.77;35.62
69173;BME280;56280;49.662;8.408;2022-08-21T08:40:43;100758.91;;;29.22;35.62
69173;BME280;56280;49.662;8.408;2022-08-21T08:43:10;100713.22;;;29.10;34.71
69173;BME280;56280;49.662;8.408;2022-08-21T08:45:39;100744.94;;;29.64;35.94
69173;BME280;56280;49.662;8.408;2022-08-21T08:48:07;100744.53;;;29.84;35.87
69173;BME280;56280;49.662;8.408;2022-08-21T08:50:45;100753.75;;;29.95;34.55
69173;BME280;56280;49.662;8.408;2022-08-21T08:55:45;100735.56;;;30.06;33.08
69173;BME280;56280;49.662;8.408;2022-08-21T08:58:27;100740.72;;;29.73;34.33
69173;BME280;56280;49.662;8.408;2022-08-21T09:00:56;100700.88;;;29.08;35.07
69173;BME280;56280;49.662;8.408;2022-08-21T09:03:26;100738.25;;;29.72;34.54
69173;BME280;56280;49.662;8.408;2022-08-21T09:06:13;100694.28;;;28.92;37.08
69173;BME280;56280;49.662;8.408;2022-08-21T09:08:54;100723.41;;;29.39;37.28
69173;BME280;56280;49.662;8.408;2022-08-21T09:14:36;100726.88;;;30.26;35.50
69173;BME280;56280;49.662;8.408;2022-08-21T09:20:12;100710.72;;;30.63;34.02
69173;BME280;56280;49.662;8.408;2022-08-21T09:25:59;100719.38;;;30.72;35.39
69173;BME280;56280;49.662;8.408;2022-08-21T09:28:25;100707.13;;;30.41;34.52
69173;BME280;56280;49.662;8.408;2022-08-21T09:30:54;100694.88;;;30.31;34.62
69173;BME280;56280;49.662;8.408;2022-08-21T09:33:20;100704.28;;;30.18;35.67
69173;BME280;56280;49.662;8.408;2022-08-21T09:35:54;100693.66;;;30.39;34.33
69173;BME280;56280;49.662;8.408;2022-08-21T09:38:29;100719.97;;;30.57;34.52
69173;BME280;56280;49.662;8.408;2022-08-21T09:41:04;100717.41;;;30.16;32.70
69173;BME280;56280;49.662;8.408;2022-08-21T09:43:30;100700.16;;;30.16;33.10
69173;BME280;56280;49.662;8.408;2022-08-21T09:48:42;100704.78;;;29.98;34.29
69173;BME280;56280;49.662;8.408;2022-08-21T09:51:31;100720.41;;;29.69;32.49
69173;BME280;56280;49.662;8.408;2022-08-21T09:56:33;100707.56;;;29.00;32.89
69173;BME280;56280;49.662;8.408;2022-08-21T10:01:51;100711.53;;;27.79;33.37
69173;BME280;56280;49.662;8.408;2022-08-21T10:04:24;100686.19;;;28.02;36.13
69173;BME280;56280;49.662;8.408;2022-08-21T10:06:52;100696.50;;;27.89;35.22
69173;BME280;56280;49.662;8.408;2022-08-21T10:09:18;100674.66;;;26.79;37.10
69173;BME280;56280;49.662;8.408;2022-08-21T10:12:20;100714.03;;;27.51;36.59
69173;BME280;56280;49.662;8.408;2022-08-21T10:18:15;100709.50;;;26.52;37.30
69173;BME280;56280;49.662;8.408;2022-08-21T10:20:50;100695.53;;;25.91;37.66
69173;BME280;56280;49.662;8.408;2022-08-21T10:23:39;100690.47;;;25.70;37.30
69173;BME280;56280;49.662;8.408;2022-08-21T10:26:24;100700.75;;;25.93;39.19
69173;BME280;56280;49.662;8.408;2022-08-21T10:32:05;100672.66;;;25.35;37.72
69173;BME280;56280;49.662;8.408;2022-08-21T10:40:02;100683.13;;;26.02;37.83
69173;BME280;56280;49.662;8.408;2022-08-21T10:47:54;100650.63;;;26.07;36.51
69173;BME280;56280;49.662;8.408;2022-08-21T10:50:38;100672.03;;;26.04;37.10
69173;BME280;56280;49.662;8.408;2022-08-21T10:55:45;100682.69;;;25.73;38.29
69173;BME280;56280;49.662;8.408;2022-08-21T10:58:19;100659.69;;;26.01;36.33
69173;BME280;56280;49.662;8.408;2022-08-21T11:00:51;100672.06;;;25.97;36.88
69173;BME280;56280;49.662;8.408;2022-08-21T11:03:45;100679.91;;;25.80;37.67
69173;BME280;56280;49.662;8.408;2022-08-21T11:06:18;100671.56;;;25.43;37.52
69173;BME280;56280;49.662;8.408;2022-08-21T11:08:50;100656.03;;;25.57;37.25
69173;BME280;56280;49.662;8.408;2022-08-21T11:11:25;100654.19;;;25.76;37.54
69173;BME280;56280;49.662;8.408;2022-08-21T11:14:02;100651.75;;;25.93;37.70
69173;BME280;56280;49.662;8.408;2022-08-21T11:16:41;100658.34;;;26.10;37.36
69173;BME280;56280;49.662;8.408;2022-08-21T11:19:09;100657.34;;;26.05;36.64
69173;BME280;56280;49.662;8.408;2022-08-21T11:24:33;100656.25;;;25.80;38.13
69173;BME280;56280;49.662;8.408;2022-08-21T11:29:57;100636.72;;;26.15;37.26
69173;BME280;56280;49.662;8.408;2022-08-21T11:43:45;100627.34;;;26.92;34.61
69173;BME280;56280;49.662;8.408;2022-08-21T11:49:17;100631.69;;;26.93;36.36
69173;BME280;56280;49.662;8.408;2022-08-21T11:54:51;100607.94;;;27.00;35.17
69173;BME280;56280;49.662;8.408;2022-08-21T11:57:23;100630.34;;;27.02;33.97
69173;BME280;56280;49.662;8.408;2022-08-21T12:00:01;100627.84;;;26.64;33.87
69173;BME280;56280;49.662;8.408;2022-08-21T12:02:32;100623.84;;;26.85;34.22
69173;BME280;56280;49.662;8.408;2022-08-21T12:05:05;100603.47;;;26.87;34.23
69173;BME280;56280;49.662;8.408;2022-08-21T12:07:40;100602.72;;;26.99;34.39
69173;BME280;56280;49.662;8.408;2022-08-21T12:10:10;100593.34;;;27.06;33.41
69173;BME280;56280;49.662;8.408;2022-08-21T12:12:38;100592.41;;;27.01;34.83
69173;BME280;56280;49.662;8.408;2022-08-21T12:15:27;100606.69;;;27.15;36.34
69173;BME280;56280;49.662;8.408;2022-08-21T12:18:22;100590.56;;;27.13;35.73
69173;BME280;56280;49.662;8.408;2022-08-21T12:26:33;100602.78;;;27.53;35.31
69173;BME280;56280;49.662;8.408;2022-08-21T12:29:11;100596.25;;;27.54;34.88
69173;BME280;56280;49.662;8.408;2022-08-21T12:31:52;100586.72;;;27.33;36.41
69173;BME280;56280;49.662;8.408;2022-08-21T12:34:20;100594.69;;;27.46;34.96
69173;BME280;56280;49.662;8.408;2022-08-21T12:36:56;100603.88;;;27.63;33.80
69173;BME280;56280;49.662;8.408;2022-08-21T12:39:26;100590.78;;;27.42;34.27
69173;BME280;56280;49.662;8.408;2022-08-21T12:44:30;100579.91;;;27.54;33.43
69173;BME280;56280;49.662;8.408;2022-08-21T12:47:06;100584.28;;;27.55;34.91
69173;BME280;56280;49.662;8.408;2022-08-21T12:49:36;100582.38;;;27.67;33.36
69173;BME280;56280;49.662;8.408;2022-08-21T12:52:19;100584.00;;;27.33;32.86
69173;BME280;56280;49.662;8.408;2022-08-21T12:54:45;100579.84;;;27.30;33.89
69173;BME280;56280;49.662;8.408;2022-08-21T12:57:20;100557.38;;;27.16;33.32
69173;BME280;56280;49.662;8.408;2022-08-21T12:59:52;100580.34;;;27.39;35.33
69173;BME280;56280;49.662;8.408;2022-08-21T13:02:22;100553.59;;;27.29;34.50
69173;BME280;56280;49.662;8.408;2022-08-21T13:04:49;100569.47;;;27.20;32.95
69173;BME280;56280;49.662;8.408;2022-08-21T13:07:22;100561.34;;;27.02;33.90
69173;BME280;56280;49.662;8.408;2022-08-21T13:09:54;100584.03;;;27.14;34.10
69173;BME280;56280;49.662;8.408;2022-08-21T13:12:21;100562.41;;;27.01;34.05
69173;BME280;56280;49.662;8.408;2022-08-21T13:14:48;100548.44;;;27.09;33.23
69173;BME280;56280;49.662;8.408;2022-08-21T13:17:20;100556.16;;;27.12;33.41
69173;BME280;56280;49.662;8.408;2022-08-21T13:22:31;100554.97;;;27.50;33.79
69173;BME280;56280;49.662;8.408;2022-08-21T13:24:56;100569.47;;;27.74;34.69
69173;BME280;56280;49.662;8.408;2022-08-21T13:27:24;100558.09;;;27.89;33.40
69173;BME280;56280;49.662;8.408;2022-08-21T13:30:02;100560.31;;;27.69;31.70
69173;BME280;56280;49.662;8.408;2022-08-21T13:32:30;100550.97;;;27.22;31.72
69173;BME280;56280;49.662;8.408;2022-08-21T13:34:56;100547.16;;;26.81;33.08
69173;BME280;56280;49.662;8.408;2022-08-21T13:37:23;100566.16;;;26.88;31.81
69173;BME280;56280;49.662;8.408;2022-08-21T13:39:51;100552.41;;;26.64;32.34
69173;BME280;56280;49.662;8.408;2022-08-21T13:42:17;100557.91;;;26.57;33.15
69173;BME280;56280;49.662;8.408;2022-08-21T13:44:46;100565.13;;;26.52;33.04
69173;BME280;56280;49.662;8.408;2022-08-21T13:47:14;100558.38;;;26.73;33.48
69173;BME280;56280;49.662;8.408;2022-08-21T13:49:44;100536.72;;;26.78;33.09
69173;BME280;56280;49.662;8.408;2022-08-21T13:52:22;100538.78;;;26.95;33.33
69173;BME280;56280;49.662;8.408;2022-08-21T13:54:57;100542.63;;;27.05;32.39
69173;BME280;56280;49.662;8.408;2022-08-21T13:57:31;100541.53;;;27.37;32.00
69173;BME280;56280;49.662;8.408;2022-08-21T14:00:15;100541.53;;;27.37;33.74
69173;BME280;56280;49.662;8.408;2022-08-21T14:02:43;100529.81;;;27.36;32.82
69173;BME280;56280;49.662;8.408;2022-08-21T14:05:19;100526.72;;;27.33;32.48
69173;BME280;56280;49.662;8.408;2022-08-21T14:07:44;100523.53;;;27.36;32.85
69173;BME280;56280;49.662;8.408;2022-08-21T14:10:17;100527.22;;;27.53;32.73
69173;BME280;56280;49.662;8.408;2022-08-21T14:12:47;100531.94;;;27.58;32.26